createdAt,value
2022-08-18T00:01:56.255Z,18.81
2022-08-18T00:04:29.897Z,18.79
2022-08-18T00:07:04.211Z,18.77
2022-08-18T00:09:34.000Z,18.82
2022-08-18T00:12:04.074Z,18.70
2022-08-18T00:14:32.634Z,18.66
2022-08-18T00:17:01.130Z,18.63
2022-08-18T00:19:45.457Z,18.61
2022-08-18T00:22:18.358Z,18.62
2022-08-18T00:24:49.238Z,18.63
2022-08-18T00:27:21.747Z,18.62
2022-08-18T00:29:52.165Z,18.66
2022-08-18T00:32:24.002Z,18.71
2022-08-18T00:34:54.126Z,18.66
2022-08-18T00:37:23.989Z,18.54
2022-08-18T00:39:52.827Z,18.51
2022-08-18T00:42:27.292Z,18.47
2022-08-18T00:45:02.965Z,18.47
2022-08-18T00:47:41.502Z,18.54
2022-08-18T00:50:24.879Z,18.58
2022-08-18T00:52:57.325Z,18.58
2022-08-18T00:55:26.651Z,18.59
2022-08-18T00:58:01.782Z,18.48
2022-08-18T01:00:30.170Z,18.49
2022-08-18T01:03:02.216Z,18.50
2022-08-18T01:05:40.984Z,18.44
2022-08-18T01:08:11.827Z,18.41
2022-08-18T01:10:40.579Z,18.30
2022-08-18T01:13:09.372Z,18.20
2022-08-18T01:15:38.171Z,18.19
2022-08-18T01:18:28.938Z,18.18
2022-08-18T01:21:23.218Z,18.23
2022-08-18T01:23:55.633Z,18.18
2022-08-18T01:26:26.274Z,18.25
2022-08-18T01:28:54.340Z,18.28
2022-08-18T01:31:38.131Z,18.36
2022-08-18T01:34:07.617Z,18.28
2022-08-18T01:36:38.325Z,18.17
2022-08-18T01:39:10.179Z,18.15
2022-08-18T01:41:38.545Z,18.17
2022-08-18T01:44:11.641Z,18.17
2022-08-18T01:46:41.740Z,18.11
2022-08-18T01:49:10.852Z,17.98
2022-08-18T01:51:41.421Z,17.88
2022-08-18T01:54:14.765Z,17.81
2022-08-18T01:56:43.580Z,17.81
2022-08-18T01:59:13.578Z,17.73
2022-08-18T02:01:48.860Z,17.71
2022-08-18T02:04:41.356Z,17.61
2022-08-18T02:07:12.007Z,17.50
2022-08-18T02:09:44.093Z,17.54
2022-08-18T02:12:13.471Z,17.62
2022-08-18T02:14:41.890Z,17.48
2022-08-18T02:17:11.994Z,17.43
2022-08-18T02:19:42.860Z,17.31
2022-08-18T02:22:13.424Z,17.26
2022-08-18T02:24:43.313Z,17.29
2022-08-18T02:27:13.182Z,17.30
2022-08-18T02:29:41.787Z,17.37
2022-08-18T02:32:09.773Z,17.45
2022-08-18T02:34:37.834Z,17.41
2022-08-18T02:37:05.610Z,17.36
2022-08-18T02:39:37.910Z,17.22
2022-08-18T02:42:07.846Z,17.11
2022-08-18T02:44:36.638Z,16.98
2022-08-18T02:47:05.048Z,16.89
2022-08-18T02:49:33.465Z,16.86
2022-08-18T02:52:01.294Z,16.94
2022-08-18T02:54:29.207Z,16.87
2022-08-18T02:56:58.066Z,16.93
2022-08-18T02:59:28.467Z,16.97
2022-08-18T03:02:00.119Z,17.01
2022-08-18T03:04:30.688Z,17.04
2022-08-18T03:07:01.270Z,17.04
2022-08-18T03:09:30.443Z,16.98
2022-08-18T03:11:59.763Z,16.94
2022-08-18T03:14:29.427Z,16.90
2022-08-18T03:16:58.345Z,17.03
2022-08-18T03:19:28.477Z,17.04
2022-08-18T03:21:59.381Z,16.95
2022-08-18T03:24:31.653Z,16.82
2022-08-18T03:27:01.539Z,16.85
2022-08-18T03:29:32.677Z,16.83
2022-08-18T03:32:02.006Z,16.86
2022-08-18T03:34:30.549Z,16.98
2022-08-18T03:36:59.285Z,16.94
2022-08-18T03:39:28.547Z,17.04
2022-08-18T03:42:01.534Z,17.00
2022-08-18T03:44:34.173Z,16.96
2022-08-18T03:47:03.623Z,16.92
2022-08-18T03:49:33.536Z,16.95
2022-08-18T03:52:01.907Z,16.90
2022-08-18T03:54:32.076Z,16.78
2022-08-18T03:57:01.205Z,16.79
2022-08-18T03:59:32.018Z,16.77
2022-08-18T04:02:00.879Z,16.75
2022-08-18T04:04:30.146Z,16.83
2022-08-18T04:07:00.430Z,16.76
2022-08-18T04:09:30.210Z,16.76
2022-08-18T04:11:59.438Z,16.87
2022-08-18T04:14:30.363Z,16.87
2022-08-18T04:17:00.339Z,16.83
2022-08-18T04:19:28.559Z,16.83
2022-08-18T04:21:58.167Z,16.87
2022-08-18T04:24:31.063Z,16.85
2022-08-18T04:27:01.699Z,16.91
2022-08-18T04:29:30.220Z,16.86
2022-08-18T04:32:01.534Z,16.92
2022-08-18T04:34:29.667Z,17.07
2022-08-18T04:36:57.709Z,17.20
2022-08-18T04:39:25.747Z,17.20
2022-08-18T04:41:53.969Z,17.28
2022-08-18T04:44:22.237Z,17.36
2022-08-18T04:46:52.761Z,17.44
2022-08-18T04:49:26.092Z,17.51
2022-08-18T04:52:36.334Z,17.56
2022-08-18T04:55:03.982Z,17.64
2022-08-18T04:57:34.883Z,17.68
2022-08-18T05:00:03.971Z,17.71
2022-08-18T05:02:33.033Z,17.71
2022-08-18T05:05:03.929Z,17.74
2022-08-18T05:07:32.071Z,17.86
2022-08-18T05:10:00.022Z,17.94
2022-08-18T05:12:28.330Z,18.01
2022-08-18T05:14:57.737Z,18.15
2022-08-18T05:17:30.096Z,18.23
2022-08-18T05:19:58.759Z,18.35
2022-08-18T05:22:30.424Z,18.40
2022-08-18T05:24:59.898Z,18.50
2022-08-18T05:27:33.886Z,18.54
2022-08-18T05:30:02.391Z,18.80
2022-08-18T05:32:47.662Z,18.84
2022-08-18T05:35:23.095Z,18.89
2022-08-18T05:38:35.117Z,19.03
2022-08-18T05:41:13.673Z,19.12
2022-08-18T05:43:51.224Z,19.18
2022-08-18T05:46:22.800Z,19.19
2022-08-18T05:48:51.455Z,19.37
2022-08-18T05:51:30.442Z,19.43
2022-08-18T05:54:19.036Z,19.49
2022-08-18T05:56:51.071Z,19.65
2022-08-18T05:59:24.659Z,19.78
2022-08-18T06:01:59.961Z,19.82
2022-08-18T06:04:38.914Z,19.87
2022-08-18T06:07:12.398Z,20.16
2022-08-18T06:09:48.517Z,20.21
2022-08-18T06:12:25.422Z,20.41
2022-08-18T06:15:01.657Z,20.44
2022-08-18T06:17:57.952Z,20.69
2022-08-18T06:20:33.547Z,20.67
2022-08-18T06:23:18.516Z,20.83
2022-08-18T06:25:58.797Z,20.97
2022-08-18T06:28:30.414Z,21.01
2022-08-18T06:31:02.117Z,21.15
2022-08-18T06:33:50.571Z,21.25
2022-08-18T06:36:33.329Z,21.37
2022-08-18T06:39:07.190Z,21.49
2022-08-18T06:41:42.980Z,21.56
2022-08-18T06:44:13.400Z,21.70
2022-08-18T06:46:46.151Z,21.78
2022-08-18T06:49:25.427Z,21.88
2022-08-18T06:51:53.749Z,21.95
2022-08-18T06:54:30.650Z,22.06
2022-08-18T06:57:00.101Z,22.14
2022-08-18T06:59:30.866Z,22.38
2022-08-18T07:02:02.092Z,22.56
2022-08-18T07:04:38.471Z,22.71
2022-08-18T07:07:15.338Z,22.99
2022-08-18T07:09:43.396Z,23.02
2022-08-18T07:12:20.434Z,23.18
2022-08-18T07:14:52.094Z,23.41
2022-08-18T07:17:23.097Z,23.47
2022-08-18T07:20:20.607Z,23.52
2022-08-18T07:23:00.258Z,23.74
2022-08-18T07:25:32.448Z,23.86
2022-08-18T07:28:02.905Z,23.94
2022-08-18T07:30:35.956Z,24.07
2022-08-18T07:33:14.960Z,24.06
2022-08-18T07:35:49.135Z,24.29
2022-08-18T07:41:16.421Z,24.46
2022-08-18T07:43:59.533Z,24.50
2022-08-18T07:46:39.930Z,24.68
2022-08-18T07:49:07.994Z,24.82
2022-08-18T07:51:47.600Z,24.93
2022-08-18T07:54:50.792Z,25.14
2022-08-18T07:57:29.686Z,25.30
2022-08-18T08:00:11.220Z,25.43
2022-08-18T08:02:58.841Z,25.65
2022-08-18T08:05:41.415Z,25.77
2022-08-18T08:08:24.919Z,25.83
2022-08-18T08:11:08.806Z,25.86
2022-08-18T08:13:55.641Z,26.04
2022-08-18T08:16:36.562Z,25.92
2022-08-18T08:19:49.438Z,25.92
2022-08-18T08:22:22.035Z,26.21
2022-08-18T08:24:58.038Z,26.27
2022-08-18T08:27:37.794Z,26.26
2022-08-18T08:30:10.862Z,26.43
2022-08-18T08:32:50.775Z,26.55
2022-08-18T08:35:48.754Z,26.59
2022-08-18T08:38:39.954Z,26.81
2022-08-18T08:41:14.415Z,26.83
2022-08-18T08:43:46.649Z,26.98
2022-08-18T08:46:20.859Z,26.94
2022-08-18T08:48:55.929Z,27.10
2022-08-18T08:51:38.193Z,27.24
2022-08-18T08:54:12.043Z,27.42
2022-08-18T08:56:47.686Z,27.53
2022-08-18T08:59:18.581Z,27.50
2022-08-18T09:01:53.571Z,27.70
2022-08-18T09:04:34.041Z,27.59
2022-08-18T09:07:18.794Z,27.68
2022-08-18T09:10:06.036Z,27.74
2022-08-18T09:12:48.222Z,27.88
2022-08-18T09:15:44.650Z,28.04
2022-08-18T09:18:36.352Z,28.26
2022-08-18T09:21:15.973Z,28.36
2022-08-18T09:23:47.405Z,28.26
2022-08-18T09:26:39.500Z,28.33
2022-08-18T09:29:17.712Z,28.49
2022-08-18T09:31:48.606Z,28.45
2022-08-18T09:34:32.622Z,28.61
2022-08-18T09:37:17.759Z,28.63
2022-08-18T09:40:14.668Z,28.52
2022-08-18T09:42:50.385Z,28.75
2022-08-18T09:45:42.393Z,28.94
2022-08-18T09:48:29.282Z,29.07
2022-08-18T09:51:18.768Z,29.06
2022-08-18T09:54:09.068Z,29.09
2022-08-18T09:57:19.453Z,29.32
2022-08-18T09:59:58.042Z,29.35
2022-08-18T10:03:12.314Z,29.31
2022-08-18T10:05:42.130Z,29.45
2022-08-18T10:08:38.031Z,29.63
2022-08-18T10:11:29.513Z,29.41
2022-08-18T10:14:12.184Z,29.57
2022-08-18T10:17:15.818Z,29.77
2022-08-18T10:19:49.059Z,30.11
2022-08-18T10:22:38.842Z,29.87
2022-08-18T10:25:22.569Z,29.88
2022-08-18T10:27:56.699Z,30.22
2022-08-18T10:34:08.379Z,30.23
2022-08-18T10:36:52.423Z,30.21
2022-08-18T10:39:23.293Z,30.41
2022-08-18T10:42:01.396Z,30.48
2022-08-18T10:44:33.258Z,30.40
2022-08-18T10:47:03.984Z,30.76
2022-08-18T10:49:44.562Z,31.02
2022-08-18T10:55:51.233Z,31.27
2022-08-18T10:58:32.320Z,31.35
2022-08-18T11:01:22.637Z,31.39
2022-08-18T11:04:14.325Z,31.50
2022-08-18T11:07:02.531Z,31.47
2022-08-18T11:09:36.951Z,31.40
2022-08-18T11:12:11.965Z,31.51
2022-08-18T11:14:55.710Z,31.64
2022-08-18T11:20:31.956Z,31.63
2022-08-18T11:23:02.879Z,31.25
2022-08-18T11:25:32.062Z,31.52
2022-08-18T11:28:02.302Z,31.49
2022-08-18T11:30:35.228Z,31.69
2022-08-18T11:33:06.793Z,31.97
2022-08-18T11:35:47.008Z,31.95
2022-08-18T11:38:20.900Z,32.13
2022-08-18T11:41:11.569Z,32.24
2022-08-18T11:46:33.395Z,32.48
2022-08-18T11:49:24.288Z,32.72
2022-08-18T11:51:57.871Z,33.04
2022-08-18T11:54:50.488Z,33.10
2022-08-18T11:57:46.879Z,33.26
2022-08-18T12:00:42.569Z,33.06
2022-08-18T12:03:19.136Z,33.18
2022-08-18T12:08:58.261Z,33.02
2022-08-18T12:11:30.305Z,33.09
2022-08-18T12:14:30.142Z,33.29
2022-08-18T12:16:54.116Z,33.43
2022-08-18T12:22:17.684Z,33.77
2022-08-18T12:24:48.309Z,33.79
2022-08-18T12:27:25.081Z,33.74
2022-08-18T12:30:01.779Z,34.01
2022-08-18T12:32:50.181Z,33.75
2022-08-18T12:35:21.799Z,33.79
2022-08-18T12:37:59.623Z,33.55
2022-08-18T12:40:28.642Z,33.64
2022-08-18T12:42:56.894Z,33.61
2022-08-18T12:45:27.207Z,33.54
2022-08-18T12:47:55.422Z,33.60
2022-08-18T12:50:31.160Z,33.75
2022-08-18T12:53:04.497Z,33.62
2022-08-18T12:58:24.864Z,33.75
2022-08-18T13:00:53.075Z,33.52
2022-08-18T13:03:21.335Z,33.30
2022-08-18T13:05:49.164Z,33.24
2022-08-18T13:08:30.656Z,32.84
2022-08-18T13:11:14.521Z,32.93
2022-08-18T13:13:43.966Z,33.02
2022-08-18T13:16:16.463Z,33.36
2022-08-18T13:19:02.005Z,33.37
2022-08-18T13:21:40.977Z,33.34
2022-08-18T13:24:12.792Z,33.12
2022-08-18T13:26:45.819Z,33.44
2022-08-18T13:29:15.468Z,33.69
2022-08-18T13:31:55.819Z,33.45
2022-08-18T13:34:30.109Z,33.41
2022-08-18T13:36:58.329Z,33.25
2022-08-18T13:39:34.268Z,33.45
2022-08-18T13:42:26.589Z,33.49
2022-08-18T13:44:53.361Z,33.40
2022-08-18T13:47:21.695Z,33.24
2022-08-18T13:49:58.367Z,32.94
2022-08-18T13:52:34.857Z,33.07
2022-08-18T13:55:08.431Z,32.96
2022-08-18T13:57:41.899Z,32.79
2022-08-18T14:00:18.386Z,33.31
2022-08-18T14:02:52.365Z,33.23
2022-08-18T14:05:21.042Z,33.05
2022-08-18T14:08:06.226Z,33.24
2022-08-18T14:10:35.467Z,33.23
2022-08-18T14:13:19.912Z,33.06
2022-08-18T14:15:53.509Z,32.89
2022-08-18T14:18:21.907Z,32.54
2022-08-18T14:21:14.723Z,32.81
2022-08-18T14:24:14.215Z,32.58
2022-08-18T14:26:50.004Z,32.49
2022-08-18T14:29:46.077Z,32.52
2022-08-18T14:32:08.382Z,32.70
2022-08-18T14:34:36.814Z,32.82
2022-08-18T14:37:05.003Z,32.59
2022-08-18T14:39:38.575Z,32.91
2022-08-18T14:42:09.639Z,32.63
2022-08-18T14:44:40.350Z,32.41
2022-08-18T14:47:09.416Z,31.96
2022-08-18T14:49:42.977Z,32.08
2022-08-18T14:52:16.080Z,32.41
2022-08-18T14:54:46.275Z,32.32
2022-08-18T14:59:49.256Z,32.40
2022-08-18T15:02:17.612Z,32.27
2022-08-18T15:04:56.001Z,32.35
2022-08-18T15:07:26.168Z,32.47
2022-08-18T15:10:19.701Z,32.65
2022-08-18T15:12:44.572Z,32.70
2022-08-18T15:15:17.998Z,32.60
2022-08-18T15:17:49.554Z,32.09
2022-08-18T15:20:23.977Z,32.15
2022-08-18T15:23:22.823Z,32.10
2022-08-18T15:25:56.977Z,32.18
2022-08-18T15:28:28.298Z,32.10
2022-08-18T15:33:44.089Z,32.25
2022-08-18T15:36:28.909Z,32.43
2022-08-18T15:38:57.967Z,32.67
2022-08-18T15:41:32.714Z,32.60
2022-08-18T15:44:05.771Z,32.30
2022-08-18T15:46:34.952Z,32.17
2022-08-18T15:49:05.343Z,32.27
2022-08-18T15:51:35.509Z,32.34
2022-08-18T15:54:11.398Z,32.30
2022-08-18T15:56:39.667Z,31.97
2022-08-18T15:59:12.958Z,31.69
2022-08-18T16:01:43.443Z,31.46
2022-08-18T16:04:11.314Z,31.11
2022-08-18T16:06:41.685Z,30.86
2022-08-18T16:09:09.521Z,30.52
2022-08-18T16:11:37.423Z,30.41
2022-08-18T16:14:06.454Z,30.13
2022-08-18T16:16:36.648Z,30.08
2022-08-18T16:19:06.742Z,29.81
2022-08-18T16:21:40.065Z,29.73
2022-08-18T16:24:09.320Z,29.51
2022-08-18T16:26:37.629Z,29.41
2022-08-18T16:29:05.415Z,29.40
2022-08-18T16:31:33.778Z,29.30
2022-08-18T16:34:03.199Z,29.15
2022-08-18T16:36:31.004Z,29.06
2022-08-18T16:38:59.120Z,28.95
2022-08-18T16:41:28.196Z,28.85
2022-08-18T16:43:56.331Z,28.73
2022-08-18T16:46:27.109Z,28.64
2022-08-18T16:48:56.075Z,28.69
2022-08-18T16:51:26.741Z,28.53
2022-08-18T16:53:55.128Z,28.52
2022-08-18T16:56:25.165Z,28.41
2022-08-18T16:59:10.527Z,28.28
2022-08-18T17:01:56.844Z,28.15
2022-08-18T17:04:29.032Z,27.90
2022-08-18T17:06:58.567Z,27.85
2022-08-18T17:09:27.393Z,27.84
2022-08-18T17:11:55.532Z,27.78
2022-08-18T17:14:25.921Z,27.83
2022-08-18T17:16:55.382Z,27.60
2022-08-18T17:19:25.348Z,27.56
2022-08-18T17:21:53.744Z,27.34
2022-08-18T17:24:31.993Z,27.18
2022-08-18T17:27:20.387Z,27.06
2022-08-18T17:30:03.101Z,26.98
2022-08-18T17:35:14.734Z,26.61
2022-08-18T17:37:52.197Z,26.50
2022-08-18T17:40:28.557Z,26.54
2022-08-18T17:42:59.768Z,26.41
2022-08-18T17:45:30.747Z,26.19
2022-08-18T17:48:03.725Z,26.28
2022-08-18T17:51:00.521Z,26.20
2022-08-18T17:53:31.761Z,26.10
2022-08-18T17:56:07.654Z,25.98
2022-08-18T17:58:40.676Z,25.88
2022-08-18T18:01:09.530Z,25.88
2022-08-18T18:03:38.011Z,25.71
2022-08-18T18:06:12.001Z,25.72
2022-08-18T18:08:53.822Z,25.69
2022-08-18T18:11:28.628Z,25.54
2022-08-18T18:13:56.690Z,25.53
2022-08-18T18:16:28.175Z,25.32
2022-08-18T18:19:01.354Z,25.35
2022-08-18T18:22:01.526Z,25.32
2022-08-18T18:24:24.154Z,25.36
2022-08-18T18:26:53.607Z,25.23
2022-08-18T18:29:29.108Z,25.12
2022-08-18T18:32:01.615Z,25.02
2022-08-18T18:34:34.217Z,24.95
2022-08-18T18:37:03.394Z,24.97
2022-08-18T18:39:35.628Z,24.83
2022-08-18T18:42:18.399Z,24.78
2022-08-18T18:44:55.662Z,24.81
2022-08-18T18:47:50.391Z,24.76
2022-08-18T18:50:27.341Z,24.60
2022-08-18T18:53:12.118Z,24.54
2022-08-18T18:55:48.540Z,24.75
2022-08-18T18:58:33.271Z,24.55
2022-08-18T19:01:05.594Z,24.53
2022-08-18T19:03:40.695Z,24.48
2022-08-18T19:06:21.085Z,24.43
2022-08-18T19:08:57.961Z,24.33
2022-08-18T19:11:30.685Z,24.28
2022-08-18T19:14:07.341Z,24.31
2022-08-18T19:16:41.655Z,24.18
2022-08-18T19:19:37.649Z,24.08
2022-08-18T19:22:09.880Z,24.00
2022-08-18T19:24:46.440Z,24.01
2022-08-18T19:27:23.679Z,23.93
2022-08-18T19:29:58.061Z,23.85
2022-08-18T19:32:34.827Z,23.65
2022-08-18T19:35:04.461Z,23.62
2022-08-18T19:37:53.813Z,23.54
2022-08-18T19:40:28.249Z,23.45
2022-08-18T19:43:02.816Z,23.27
2022-08-18T19:45:37.330Z,23.23
2022-08-18T19:48:15.161Z,23.08
2022-08-18T19:50:51.923Z,23.15
2022-08-18T19:54:04.261Z,22.95
2022-08-18T19:56:53.312Z,22.84
2022-08-18T19:59:38.700Z,22.79
2022-08-18T20:02:26.465Z,22.71
2022-08-18T20:05:09.277Z,22.86
2022-08-18T20:07:55.615Z,22.86
2022-08-18T20:10:53.677Z,22.85
2022-08-18T20:13:32.594Z,22.94
2022-08-18T20:16:28.565Z,22.98
2022-08-18T20:19:42.032Z,22.98
2022-08-18T20:22:16.131Z,23.03
2022-08-18T20:24:51.753Z,23.08
2022-08-18T20:27:35.914Z,23.04
2022-08-18T20:30:33.138Z,23.08
2022-08-18T20:33:20.600Z,23.10
2022-08-18T20:35:59.430Z,23.08
2022-08-18T20:38:34.260Z,23.05
2022-08-18T20:41:39.181Z,23.02
2022-08-18T20:44:29.416Z,22.96
2022-08-18T20:47:11.161Z,22.83
2022-08-18T20:49:52.745Z,22.77
2022-08-18T20:52:37.837Z,22.76
2022-08-18T20:55:16.393Z,22.55
2022-08-18T20:57:45.201Z,22.56
2022-08-18T21:00:15.763Z,22.56
